Time;durP1;ratioP1;P1;durP2;ratioP2;P2;SDS_P1;SDS_P2;PMS_P1;PMS_P2;Temp;Humidity;BMP_temperature;BMP_pressure;BME280_temperature;BME280_humidity;BME280_pressure;Samples;Min_cycle;Max_cycle;Signal;HPM_P1;HPM_P2
2022/06/23 00:02:04;;;;;;;4.93;3.63;;;14.30;99.90;;;;;;4994689;28;20081;-77
2022/06/23 00:04:40;;;;;;;6.50;3.40;;;14.30;99.90;;;;;;5011985;28;20112;-79
2022/06/23 00:07:15;;;;;;;7.45;3.50;;;14.30;99.90;;;;;;5011772;28;20139;-78
2022/06/23 00:09:43;;;;;;;6.20;3.75;;;14.20;99.90;;;;;;5011441;28;20133;-79
2022/06/23 00:12:18;;;;;;;6.13;3.55;;;14.20;99.90;;;;;;5012032;28;20050;-79
2022/06/23 00:14:44;;;;;;;6.93;3.28;;;14.20;99.90;;;;;;5010417;28;20045;-79
2022/06/23 00:17:19;;;;;;;12.23;4.50;;;14.20;99.90;;;;;;4994911;28;20382;-78
2022/06/23 00:19:45;;;;;;;5.75;3.45;;;14.20;99.90;;;;;;5011005;28;20045;-79
2022/06/23 00:22:11;;;;;;;6.65;3.10;;;14.20;99.90;;;;;;5012182;28;20033;-78
2022/06/23 00:24:39;;;;;;;4.80;3.03;;;14.10;99.90;;;;;;4995136;28;20088;-79
2022/06/23 00:27:05;;;;;;;5.82;3.60;;;14.20;99.90;;;;;;5011816;28;20053;-79
2022/06/23 00:29:31;;;;;;;6.85;3.55;;;14.10;99.90;;;;;;5012170;28;20053;-79
2022/06/23 00:32:02;;;;;;;9.73;4.05;;;14.10;99.90;;;;;;5011345;28;20046;-78
2022/06/23 00:34:34;;;;;;;7.10;3.28;;;14.10;99.90;;;;;;5012138;28;20533;-79
2022/06/23 00:37:04;;;;;;;6.78;3.72;;;14.10;99.90;;;;;;5011024;28;20042;-79
2022/06/23 00:39:35;;;;;;;6.57;3.53;;;14.10;99.90;;;;;;5011712;28;20099;-80
2022/06/23 00:42:03;;;;;;;4.82;3.58;;;14.00;99.90;;;;;;5011912;28;20101;-79
2022/06/23 00:44:47;;;;;;;5.88;3.78;;;14.00;99.90;;;;;;5012314;28;20037;-78
2022/06/23 00:47:29;;;;;;;6.68;4.30;;;13.90;99.90;;;;;;5012492;28;20106;-80
2022/06/23 00:50:19;;;;;;;6.65;4.03;;;13.90;99.90;;;;;;5013362;28;20037;-77
2022/06/23 00:52:59;;;;;;;6.28;3.60;;;13.80;99.90;;;;;;5012259;28;20053;-79
2022/06/23 00:55:28;;;;;;;6.53;3.72;;;13.80;99.90;;;;;;4994640;28;20074;-78
2022/06/23 00:57:59;;;;;;;10.00;4.35;;;13.80;99.90;;;;;;4994969;28;20048;-79
2022/06/23 01:00:34;;;;;;;7.75;4.30;;;13.70;99.90;;;;;;4995315;28;20045;-79
2022/06/23 01:03:02;;;;;;;6.93;4.03;;;13.70;99.90;;;;;;5012451;28;20041;-78
2022/06/23 01:05:34;;;;;;;7.88;4.47;;;13.70;99.90;;;;;;4998191;28;20048;-77
2022/06/23 01:08:28;;;;;;;11.85;5.53;;;13.70;99.90;;;;;;4999563;28;20097;-78
2022/06/23 01:11:23;;;;;;;7.93;4.47;;;13.70;99.90;;;;;;5016721;28;20397;-78
2022/06/23 01:13:58;;;;;;;6.80;3.72;;;13.60;99.90;;;;;;5007755;28;20057;-79
2022/06/23 01:16:48;;;;;;;6.68;3.90;;;13.60;99.90;;;;;;4999168;28;20038;-78
2022/06/23 01:19:32;;;;;;;8.40;4.20;;;13.60;99.90;;;;;;4999673;28;20042;-79
2022/06/23 01:22:02;;;;;;;8.07;4.20;;;13.50;99.90;;;;;;5016142;28;20038;-79
2022/06/23 01:25:03;;;;;;;9.23;4.45;;;13.60;99.90;;;;;;5017466;28;20069;-79
2022/06/23 01:27:47;;;;;;;7.70;4.55;;;13.50;99.90;;;;;;5000118;28;20049;-78
2022/06/23 01:30:14;;;;;;;6.60;4.25;;;13.60;99.90;;;;;;5016378;28;20125;-79
2022/06/23 01:32:57;;;;;;;6.80;4.63;;;13.40;99.90;;;;;;5000924;28;20042;-79
2022/06/23 01:35:55;;;;;;;8.13;4.05;;;13.50;99.90;;;;;;5016646;28;20053;-79
2022/06/23 01:38:30;;;;;;;8.77;4.70;;;13.50;99.90;;;;;;4996780;28;20045;-76
2022/06/23 01:41:01;;;;;;;6.15;4.18;;;13.50;99.90;;;;;;5027684;28;20110;-76
2022/06/23 01:43:36;;;;;;;6.25;4.25;;;13.50;99.90;;;;;;5032780;28;20054;-76
2022/06/23 01:46:26;;;;;;;9.10;4.75;;;13.50;99.90;;;;;;5015334;28;20042;-76
2022/06/23 01:49:10;;;;;;;7.10;4.68;;;13.40;99.90;;;;;;4996693;28;20046;-76
2022/06/23 01:51:41;;;;;;;9.25;4.57;;;13.40;99.90;;;;;;5011938;28;20049;-76
2022/06/23 01:54:12;;;;;;;7.05;4.53;;;13.50;99.90;;;;;;5012833;28;20081;-78
2022/06/23 01:56:41;;;;;;;7.75;4.32;;;13.40;99.90;;;;;;4996122;28;20075;-76
2022/06/23 01:59:36;;;;;;;7.45;4.13;;;13.30;99.90;;;;;;4996554;28;20131;-80
2022/06/23 02:02:11;;;;;;;10.80;4.93;;;13.30;99.90;;;;;;4996225;28;20038;-76
2022/06/23 02:04:42;;;;;;;10.15;4.82;;;13.20;99.90;;;;;;5013528;28;20049;-77
2022/06/23 02:07:16;;;;;;;7.45;4.75;;;13.20;99.90;;;;;;5012644;28;20378;-76
2022/06/23 02:09:48;;;;;;;9.90;5.13;;;13.20;99.90;;;;;;5012351;28;20401;-79
2022/06/23 02:12:39;;;;;;;7.75;4.75;;;13.10;99.90;;;;;;5011977;28;20046;-76
2022/06/23 02:15:07;;;;;;;8.18;4.38;;;13.10;99.90;;;;;;4995404;28;20048;-76
2022/06/23 02:17:44;;;;;;;10.98;5.18;;;13.10;99.90;;;;;;5012147;28;20152;-76
2022/06/23 02:20:30;;;;;;;7.97;5.15;;;13.10;99.90;;;;;;5011528;28;20099;-76
2022/06/23 02:23:17;;;;;;;10.40;5.18;;;13.10;99.90;;;;;;5012113;28;20482;-79
2022/06/23 02:25:52;;;;;;;8.10;5.32;;;13.10;99.90;;;;;;5011660;28;20046;-78
2022/06/23 02:28:26;;;;;;;9.60;5.10;;;13.00;99.90;;;;;;5012986;28;20117;-78
2022/06/23 02:31:03;;;;;;;7.18;5.00;;;13.00;99.90;;;;;;5012560;28;20104;-78
2022/06/23 02:33:41;;;;;;;9.25;5.65;;;12.90;99.90;;;;;;5013385;28;20053;-77
2022/06/23 02:36:33;;;;;;;11.38;5.53;;;13.00;99.90;;;;;;5011523;28;20050;-78
2022/06/23 02:39:06;;;;;;;7.88;4.85;;;12.90;99.90;;;;;;5012687;28;20069;-79
2022/06/23 02:41:41;;;;;;;9.20;5.45;;;12.90;99.90;;;;;;5012155;28;20048;-78
2022/06/23 02:44:19;;;;;;;8.38;5.07;;;12.90;99.90;;;;;;5012423;28;20057;-78
2022/06/23 02:47:06;;;;;;;9.57;5.35;;;12.90;99.90;;;;;;5012551;28;20041;-78
2022/06/23 02:49:34;;;;;;;8.40;5.38;;;12.90;99.90;;;;;;5011340;28;20107;-80
2022/06/23 02:52:25;;;;;;;8.70;4.57;;;12.90;99.90;;;;;;5015205;28;20045;-80
2022/06/23 02:55:15;;;;;;;8.73;4.57;;;12.90;99.90;;;;;;4998059;28;20057;-78
2022/06/23 02:58:11;;;;;;;10.02;5.20;;;12.80;99.90;;;;;;5014653;28;20461;-79
2022/06/23 03:00:53;;;;;;;9.73;5.68;;;12.80;99.90;;;;;;4989459;28;20092;-80
2022/06/23 03:03:37;;;;;;;;;;;12.80;99.90;;;;;;5015293;28;20401;-79
2022/06/23 03:06:23;;;;;;;10.77;5.13;;;12.80;99.90;;;;;;4996977;28;19960;-80
2022/06/23 03:08:57;;;;;;;8.80;6.30;;;12.80;99.90;;;;;;5014091;28;20100;-80
2022/06/23 03:11:54;;;;;;;10.35;5.72;;;12.70;99.90;;;;;;4999149;28;20053;-80
2022/06/23 03:14:29;;;;;;;8.68;5.75;;;12.70;99.90;;;;;;4998287;28;20045;-79
2022/06/23 03:17:21;;;;;;;8.07;5.43;;;12.60;99.90;;;;;;5014694;28;20100;-80
2022/06/23 03:20:13;;;;;;;11.45;5.72;;;12.60;99.90;;;;;;5007191;28;20050;-80
2022/06/23 03:22:59;;;;;;;12.52;6.18;;;12.60;99.90;;;;;;5015784;28;20042;-80
2022/06/23 03:25:45;;;;;;;15.18;5.80;;;12.60;99.90;;;;;;5013509;28;20128;-80
2022/06/23 03:28:26;;;;;;;10.18;5.38;;;12.60;99.90;;;;;;5014198;28;20073;-80
2022/06/23 03:31:03;;;;;;;9.68;6.00;;;12.60;99.90;;;;;;4997965;28;20048;-80
2022/06/23 03:33:46;;;;;;;9.88;5.57;;;12.60;99.90;;;;;;5014471;28;20049;-80
2022/06/23 03:36:38;;;;;;;10.95;5.75;;;12.60;99.90;;;;;;5011500;28;20130;-79
2022/06/23 03:42:17;;;;;;;9.90;5.95;;;12.60;99.90;;;;;;5015630;28;20503;-80
2022/06/23 03:45:14;;;;;;;13.32;6.28;;;12.50;99.90;;;;;;5014895;28;20038;-80
2022/06/23 03:48:01;;;;;;;9.77;5.85;;;12.60;99.90;;;;;;5013765;28;20145;-79
2022/06/23 03:50:38;;;;;;;10.30;6.13;;;12.60;99.90;;;;;;4998304;28;20050;-80
2022/06/23 03:53:15;;;;;;;12.60;6.47;;;12.60;99.90;;;;;;5015238;28;20042;-79
2022/06/23 03:55:47;;;;;;;12.55;6.38;;;12.60;99.90;;;;;;5013673;28;20050;-79
2022/06/23 03:58:28;;;;;;;10.13;5.50;;;12.60;99.90;;;;;;4997752;28;20493;-79
2022/06/23 04:01:14;;;;;;;9.50;5.50;;;12.70;99.90;;;;;;5014055;28;20048;-80
2022/06/23 04:04:14;;;;;;;10.15;5.75;;;12.60;99.90;;;;;;4998148;28;20086;-80
2022/06/23 04:06:42;;;;;;;11.10;5.50;;;12.60;99.90;;;;;;5006960;28;20053;-80
2022/06/23 04:09:10;;;;;;;12.30;6.72;;;12.60;99.90;;;;;;4998304;28;20092;-80
2022/06/23 04:12:09;;;;;;;13.88;6.55;;;12.60;99.90;;;;;;4996948;28;20049;-80
2022/06/23 04:14:53;;;;;;;12.38;6.60;;;12.70;99.90;;;;;;5014280;28;20085;-78
2022/06/23 04:17:47;;;;;;;12.73;6.82;;;12.70;99.90;;;;;;5015351;28;20042;-80
2022/06/23 04:20:22;;;;;;;17.60;6.18;;;12.80;99.90;;;;;;5010480;28;20050;-80
2022/06/23 04:23:12;;;;;;;13.77;6.70;;;12.80;99.90;;;;;;5000148;28;20033;-79
2022/06/23 04:26:14;;;;;;;10.00;6.10;;;12.90;99.90;;;;;;5011843;28;20048;-79
2022/06/23 04:28:49;;;;;;;11.65;5.88;;;12.90;99.90;;;;;;5009807;28;20080;-78
2022/06/23 04:31:35;;;;;;;10.98;6.00;;;12.90;99.90;;;;;;5015298;28;20038;-80
2022/06/23 04:34:03;;;;;;;12.98;6.68;;;13.10;99.90;;;;;;5014612;28;20108;-80
2022/06/23 04:36:33;;;;;;;12.80;7.10;;;13.00;99.90;;;;;;5015254;28;20046;-79
2022/06/23 04:39:06;;;;;;;11.93;5.93;;;13.30;99.90;;;;;;5015584;28;20037;-80
2022/06/23 04:41:41;;;;;;;10.85;6.35;;;13.40;99.90;;;;;;5018547;28;20052;-79
2022/06/23 04:44:30;;;;;;;14.88;6.47;;;13.40;99.90;;;;;;5017634;28;20056;-79
2022/06/23 04:47:05;;;;;;;12.38;5.93;;;13.50;99.90;;;;;;5033192;28;20033;-77
2022/06/23 04:49:39;;;;;;;12.48;6.50;;;13.60;99.90;;;;;;5039938;28;20041;-77
2022/06/23 04:52:41;;;;;;;12.07;6.10;;;13.80;99.90;;;;;;4998810;28;20152;-80
2022/06/23 04:55:27;;;;;;;14.93;6.97;;;14.20;99.90;;;;;;5013712;28;20481;-80
2022/06/23 04:58:16;;;;;;;10.85;5.57;;;14.40;99.90;;;;;;5013591;28;20060;-80
2022/06/23 05:00:49;;;;;;;9.73;6.30;;;14.60;99.90;;;;;;5013015;28;20046;-79
2022/06/23 05:03:24;;;;;;;49.95;25.48;;;14.70;99.90;;;;;;5013333;28;20069;-78
2022/06/23 05:05:59;;;;;;;18.27;10.25;;;14.90;99.90;;;;;;4997058;28;20607;-79
2022/06/23 05:08:30;;;;;;;11.95;7.30;;;15.30;99.90;;;;;;5013830;28;20081;-80
2022/06/23 05:11:07;;;;;;;11.02;7.05;;;15.80;99.90;;;;;;5013322;28;20038;-79
2022/06/23 05:13:50;;;;;;;10.18;6.22;;;16.30;99.90;;;;;;5014110;28;20041;-79
2022/06/23 05:16:37;;;;;;;10.20;6.95;;;16.90;99.90;;;;;;5015733;28;20129;-79
2022/06/23 05:19:09;;;;;;;11.80;6.35;;;17.60;99.90;;;;;;5014336;28;20053;-79
2022/06/23 05:21:43;;;;;;;10.18;5.70;;;18.10;99.90;;;;;;4997668;28;20046;-79
2022/06/23 05:24:17;;;;;;;9.00;6.70;;;18.50;99.90;;;;;;5013191;28;20408;-79
2022/06/23 05:26:45;;;;;;;12.02;6.28;;;18.90;99.90;;;;;;4998360;28;20113;-79
2022/06/23 05:29:18;;;;;;;8.40;5.80;;;19.10;99.90;;;;;;5013345;28;20046;-79
2022/06/23 05:31:47;;;;;;;10.05;6.18;;;19.60;99.90;;;;;;5015571;28;20046;-80
2022/06/23 05:34:28;;;;;;;10.40;6.10;;;19.90;99.90;;;;;;5016091;28;20042;-78
2022/06/23 05:37:18;;;;;;;8.43;5.75;;;20.10;99.90;;;;;;4996675;28;20042;-79
2022/06/23 05:39:49;;;;;;;10.32;6.00;;;20.40;99.90;;;;;;5012878;28;20053;-80
2022/06/23 05:42:28;;;;;;;8.95;5.20;;;20.80;99.90;;;;;;4996719;28;20041;-81
2022/06/23 05:44:59;;;;;;;10.00;6.38;;;21.10;99.90;;;;;;5012752;28;20050;-78
2022/06/23 05:47:28;;;;;;;10.52;6.57;;;21.40;99.90;;;;;;5015161;28;20133;-78
2022/06/23 05:49:57;;;;;;;8.55;5.68;;;21.60;99.90;;;;;;5012668;28;20049;-77
2022/06/23 05:52:42;;;;;;;10.93;6.15;;;21.60;99.90;;;;;;5012310;28;20073;-77
2022/06/23 05:55:19;;;;;;;17.30;6.57;;;22.00;99.90;;;;;;5012187;28;20046;-79
2022/06/23 05:57:55;;;;;;;13.60;6.70;;;22.30;99.90;;;;;;4995995;28;20128;-77
2022/06/23 06:00:42;;;;;;;9.88;6.03;;;22.70;99.90;;;;;;5013312;28;20489;-77
2022/06/23 06:03:27;;;;;;;13.38;7.20;;;23.00;99.90;;;;;;5012644;28;20412;-77
2022/06/23 06:05:58;;;;;;;8.35;5.57;;;23.30;99.90;;;;;;4995568;28;20045;-77
2022/06/23 06:08:29;;;;;;;7.45;5.65;;;23.70;99.90;;;;;;4995804;28;20533;-77
2022/06/23 06:10:55;;;;;;;8.25;5.63;;;24.00;99.90;;;;;;5011902;28;20052;-79
2022/06/23 06:13:28;;;;;;;8.10;5.35;;;24.30;99.90;;;;;;5013351;28;20398;-77
2022/06/23 06:15:58;;;;;;;8.23;5.53;;;24.70;99.90;;;;;;5012142;28;20045;-77
2022/06/23 06:18:29;;;;;;;8.48;6.43;;;24.90;99.90;;;;;;5011921;28;20042;-77
2022/06/23 06:20:58;;;;;;;7.25;5.28;;;24.90;99.90;;;;;;5012126;28;20037;-77
2022/06/23 06:23:39;;;;;;;9.43;5.47;;;24.60;99.90;;;;;;5013024;28;20088;-76
2022/06/23 06:26:05;;;;;;;7.33;5.30;;;24.70;99.90;;;;;;5011655;28;20057;-76
2022/06/23 06:28:33;;;;;;;8.13;4.97;;;24.80;99.90;;;;;;5012967;28;20280;-77
2022/06/23 06:31:23;;;;;;;9.18;5.15;;;25.00;99.90;;;;;;5012808;28;20045;-77
2022/06/23 06:34:08;;;;;;;7.05;4.70;;;25.30;99.90;;;;;;5011855;28;20060;-77
2022/06/23 06:36:46;;;;;;;8.02;5.45;;;25.60;99.90;;;;;;5011371;28;20497;-77
2022/06/23 06:39:17;;;;;;;11.20;4.97;;;25.80;99.30;;;;;;5011694;28;20046;-77
2022/06/23 06:41:47;;;;;;;7.20;5.07;;;26.10;99.40;;;;;;4994919;28;20116;-79
2022/06/23 06:44:15;;;;;;;8.45;4.47;;;26.20;99.10;;;;;;5012736;28;20060;-77
2022/06/23 06:46:42;;;;;;;7.40;4.38;;;26.50;98.80;;;;;;5011654;28;20481;-80
2022/06/23 06:49:15;;;;;;;11.38;5.10;;;26.60;98.30;;;;;;5011712;28;20045;-77
2022/06/23 06:51:41;;;;;;;7.15;5.00;;;26.60;97.20;;;;;;5010892;28;20176;-77
2022/06/23 06:54:15;;;;;;;13.80;4.97;;;26.40;97.40;;;;;;5011259;28;20085;-79
2022/06/23 06:56:44;;;;;;;6.28;4.45;;;26.50;95.00;;;;;;5011168;28;20552;-77
2022/06/23 06:59:21;;;;;;;7.78;4.75;;;26.60;96.30;;;;;;5011124;28;20485;-77
2022/06/23 07:01:54;;;;;;;9.18;4.40;;;26.60;94.70;;;;;;5009989;28;20504;-77
2022/06/23 07:04:26;;;;;;;11.82;4.55;;;26.70;95.80;;;;;;4994958;28;20042;-81
2022/06/23 07:06:59;;;;;;;5.03;3.90;;;26.80;95.90;;;;;;5011123;28;20057;-77
2022/06/23 07:09:37;;;;;;;9.25;4.38;;;27.10;94.00;;;;;;5010980;28;20386;-77
2022/06/23 07:12:26;;;;;;;5.85;3.92;;;27.40;91.50;;;;;;5010960;28;20057;-77
2022/06/23 07:15:32;;;;;;;4.93;3.70;;;27.50;90.80;;;;;;5010795;28;20101;-78
2022/06/23 07:18:16;;;;;;;6.43;4.22;;;27.30;90.00;;;;;;5010855;28;20056;-77
2022/06/23 07:21:03;;;;;;;6.15;4.15;;;27.20;91.60;;;;;;5010438;28;20050;-78
2022/06/23 07:23:29;;;;;;;6.43;3.80;;;27.20;87.00;;;;;;5010978;28;20053;-77
2022/06/23 07:26:05;;;;;;;8.43;4.55;;;27.30;92.00;;;;;;5010837;28;20061;-78
2022/06/23 07:28:46;;;;;;;8.40;4.30;;;27.50;89.40;;;;;;5010735;28;20049;-78
2022/06/23 07:31:19;;;;;;;5.97;3.78;;;27.70;88.60;;;;;;4994108;28;20073;-78
2022/06/23 07:33:47;;;;;;;4.65;4.15;;;27.90;86.60;;;;;;5010384;28;20042;-80
2022/06/23 07:36:34;;;;;;;4.43;3.88;;;28.00;85.30;;;;;;5010387;28;20046;-77
2022/06/23 07:39:06;;;;;;;17.25;4.65;;;28.10;78.30;;;;;;5010435;28;20420;-77
2022/06/23 07:41:41;;;;;;;7.68;4.13;;;28.30;83.40;;;;;;5011392;28;20037;-77
2022/06/23 07:44:20;;;;;;;7.95;4.85;;;28.40;76.70;;;;;;5010656;28;20060;-79
2022/06/23 07:46:46;;;;;;;6.00;3.90;;;28.40;70.40;;;;;;4994169;28;20560;-77
2022/06/23 07:49:12;;;;;;;8.18;4.28;;;28.40;79.60;;;;;;4993923;28;20169;-78
2022/06/23 07:51:38;;;;;;;7.03;3.58;;;28.30;79.80;;;;;;4993724;28;20042;-78
2022/06/23 07:54:06;;;;;;;8.98;3.65;;;28.40;80.60;;;;;;5010029;28;20099;-78
2022/06/23 07:56:36;;;;;;;4.88;3.47;;;28.60;76.10;;;;;;5010208;28;20429;-78
2022/06/23 07:59:07;;;;;;;8.82;3.60;;;28.70;76.30;;;;;;5010484;28;20083;-78
2022/06/23 08:01:39;;;;;;;;;;;28.90;77.00;;;;;;5010341;28;20069;-77
2022/06/23 08:04:12;;;;;;;5.75;3.55;;;28.90;73.10;;;;;;5009933;28;20008;-77
2022/06/23 08:06:38;;;;;;;6.47;3.25;;;28.90;77.80;;;;;;4993494;28;20184;-81
2022/06/23 08:09:38;;;;;;;7.82;3.67;;;28.90;77.70;;;;;;5028104;28;20046;-81
2022/06/23 08:18:12;;;;;;;8.00;3.88;;;29.00;66.70;;;;;;5009806;28;20089;-78
2022/06/23 08:20:45;;;;;;;5.82;3.00;;;29.00;74.00;;;;;;5010758;28;20046;-78
2022/06/23 08:23:12;;;;;;;4.07;2.80;;;29.10;73.70;;;;;;5009722;28;20045;-79
2022/06/23 08:25:40;;;;;;;7.25;3.05;;;29.30;74.90;;;;;;5009891;28;20050;-80
2022/06/23 08:28:06;;;;;;;6.03;2.83;;;29.40;73.70;;;;;;5009738;28;20052;-78
2022/06/23 08:30:36;;;;;;;6.15;2.90;;;29.50;70.60;;;;;;5009683;28;20041;-78
2022/06/23 08:33:03;;;;;;;5.28;3.25;;;29.40;69.60;;;;;;5009780;28;20517;-78
2022/06/23 08:35:47;;;;;;;4.80;2.88;;;29.40;67.20;;;;;;5009442;28;20048;-78
2022/06/23 08:38:27;;;;;;;4.57;2.65;;;29.30;65.20;;;;;;5009595;28;20041;-77
2022/06/23 08:41:20;;;;;;;4.35;2.65;;;29.20;67.60;;;;;;5009376;28;20113;-77
2022/06/23 08:44:00;;;;;;;3.50;2.20;;;29.40;68.20;;;;;;5009670;28;20049;-77
2022/06/23 08:46:35;;;;;;;4.63;2.63;;;29.40;66.50;;;;;;5009745;28;20081;-77
2022/06/23 08:49:24;;;;;;;5.63;3.33;;;29.60;67.00;;;;;;5009601;28;20088;-79
2022/06/23 08:52:21;;;;;;;5.53;2.92;;;29.60;64.90;;;;;;5009367;28;20050;-77
2022/06/23 08:55:00;;;;;;;3.97;2.20;;;29.60;69.00;;;;;;5005274;28;20097;-78
2022/06/23 08:57:31;;;;;;;9.10;2.97;;;29.50;66.70;;;;;;5009460;28;20041;-77
2022/06/23 09:00:15;;;;;;;5.22;2.40;;;29.50;67.20;;;;;;5009170;28;20076;-78
2022/06/23 09:03:07;;;;;;;9.63;3.58;;;29.50;67.90;;;;;;5009566;28;20117;-77
2022/06/23 09:05:38;;;;;;;6.90;2.67;;;29.40;64.50;;;;;;5009294;28;20509;-78
2022/06/23 09:08:04;;;;;;;4.45;2.25;;;29.50;70.80;;;;;;5010782;28;20057;-78
2022/06/23 09:10:35;;;;;;;5.68;2.60;;;29.60;68.50;;;;;;4992949;28;20493;-77
2022/06/23 09:13:32;;;;;;;4.65;2.40;;;29.50;66.50;;;;;;5009502;28;20382;-77
2022/06/23 09:16:30;;;;;;;8.35;3.03;;;29.50;64.80;;;;;;5009210;28;20050;-78
2022/06/23 09:19:18;;;;;;;9.00;3.20;;;29.60;66.00;;;;;;5009499;28;20437;-78
2022/06/23 09:21:52;;;;;;;4.97;2.78;;;29.60;68.20;;;;;;5008940;28;20076;-78
2022/06/23 09:24:28;;;;;;;4.07;2.80;;;29.70;65.60;;;;;;5010625;28;20077;-79
2022/06/23 09:27:15;;;;;;;4.00;2.20;;;29.80;62.20;;;;;;5012746;28;20054;-79
2022/06/23 09:29:57;;;;;;;8.38;2.25;;;29.90;60.50;;;;;;5012492;28;20037;-78
2022/06/23 09:32:57;;;;;;;5.18;3.40;;;30.10;61.70;;;;;;5012815;28;20117;-78
2022/06/23 09:35:55;;;;;;;8.23;2.13;;;30.30;61.50;;;;;;5012579;28;20041;-78
2022/06/23 09:38:33;;;;;;;4.15;2.40;;;30.50;59.00;;;;;;5012826;28;20050;-78
2022/06/23 09:41:07;;;;;;;4.80;2.53;;;30.60;58.30;;;;;;5012417;28;20053;-78
2022/06/23 09:43:55;;;;;;;5.85;2.25;;;30.70;59.20;;;;;;5012847;28;20520;-78
2022/06/23 09:46:34;;;;;;;7.82;3.22;;;30.80;61.20;;;;;;5012752;28;20105;-78
2022/06/23 09:49:37;;;;;;;5.57;2.33;;;30.80;59.20;;;;;;5012815;28;20046;-78
2022/06/23 09:52:31;;;;;;;6.25;3.00;;;31.00;57.80;;;;;;5012441;28;20050;-77
2022/06/23 09:55:28;;;;;;;6.00;2.38;;;31.20;58.40;;;;;;5012196;28;20527;-77
2022/06/23 09:58:03;;;;;;;10.70;2.78;;;31.20;56.90;;;;;;5012333;28;20125;-78
2022/06/23 10:00:48;;;;;;;7.80;2.72;;;31.10;56.40;;;;;;5012228;28;20397;-78
2022/06/23 10:03:36;;;;;;;6.95;2.50;;;31.20;55.10;;;;;;5012475;28;20041;-77
2022/06/23 10:06:05;;;;;;;5.05;2.45;;;31.20;54.60;;;;;;5012370;28;20068;-78
2022/06/23 10:08:56;;;;;;;5.40;2.33;;;31.30;57.50;;;;;;4995740;28;20049;-77
2022/06/23 10:11:39;;;;;;;7.88;2.80;;;31.30;55.70;;;;;;4996043;28;20153;-78
2022/06/23 10:14:30;;;;;;;5.85;3.03;;;31.40;54.90;;;;;;5012431;28;20536;-77
2022/06/23 10:17:19;;;;;;;5.45;2.70;;;31.40;56.00;;;;;;5011872;28;20050;-79
2022/06/23 10:20:00;;;;;;;3.13;1.70;;;31.40;53.70;;;;;;5011568;28;20516;-78
2022/06/23 10:22:47;;;;;;;5.07;2.60;;;31.30;56.30;;;;;;5012124;28;20703;-78
2022/06/23 10:25:35;;;;;;;5.57;2.78;;;31.20;54.50;;;;;;5011813;28;20041;-77
2022/06/23 10:28:21;;;;;;;5.22;2.38;;;31.40;56.30;;;;;;5011789;28;20056;-78
2022/06/23 10:31:16;;;;;;;3.25;2.40;;;31.50;54.80;;;;;;5011443;28;20046;-77
2022/06/23 10:34:28;;;;;;;6.15;2.38;;;31.60;55.60;;;;;;5011573;28;20139;-78
2022/06/23 10:37:12;;;;;;;5.95;2.22;;;31.60;53.60;;;;;;5011459;28;20125;-78
2022/06/23 10:40:14;;;;;;;3.42;2.30;;;31.60;56.20;;;;;;5011577;28;20450;-78
2022/06/23 10:42:39;;;;;;;5.93;2.38;;;31.50;55.20;;;;;;5011538;28;20549;-78
2022/06/23 10:45:28;;;;;;;6.80;2.78;;;31.50;54.90;;;;;;5011280;28;20125;-78
2022/06/23 10:48:11;;;;;;;5.18;2.75;;;31.60;56.10;;;;;;4995098;28;20519;-77
2022/06/23 10:50:49;;;;;;;7.07;2.65;;;31.70;56.30;;;;;;4994702;28;20050;-78
2022/06/23 10:53:56;;;;;;;4.65;2.40;;;31.80;54.10;;;;;;5011146;28;20052;-78
2022/06/23 10:56:46;;;;;;;3.58;2.33;;;31.90;54.10;;;;;;4955122;28;20078;-77
2022/06/23 10:59:23;;;;;;;6.45;2.50;;;32.00;52.70;;;;;;4955002;28;20034;-77
2022/06/23 11:02:10;;;;;;;2.90;2.45;;;32.10;53.50;;;;;;4978237;28;20048;-78
2022/06/23 11:04:54;;;;;;;5.90;2.60;;;32.00;52.60;;;;;;5011189;28;20037;-77
2022/06/23 11:07:44;;;;;;;3.35;2.42;;;31.90;52.80;;;;;;5011012;28;20128;-78
2022/06/23 11:10:21;;;;;;;6.60;2.60;;;31.90;55.30;;;;;;5010765;28;20038;-77
2022/06/23 11:12:53;;;;;;;5.25;2.13;;;32.00;54.80;;;;;;5011209;28;20401;-78
2022/06/23 11:15:53;;;;;;;4.82;2.20;;;32.10;54.10;;;;;;5011094;28;20437;-77
2022/06/23 11:18:46;;;;;;;8.63;2.90;;;32.30;53.10;;;;;;5010857;28;20524;-77
2022/06/23 11:21:40;;;;;;;3.50;2.58;;;32.40;54.00;;;;;;5010430;28;20089;-77
2022/06/23 11:24:49;;;;;;;3.85;2.15;;;32.50;52.90;;;;;;5015672;28;20041;-77
2022/06/23 11:27:42;;;;;;;3.50;2.10;;;32.50;50.40;;;;;;4954051;28;20074;-77
2022/06/23 11:30:18;;;;;;;5.38;2.20;;;32.40;51.60;;;;;;5009161;28;20386;-78
2022/06/23 11:33:05;;;;;;;5.57;2.53;;;32.40;51.70;;;;;;5010567;28;20038;-78
2022/06/23 11:35:59;;;;;;;7.00;2.38;;;32.50;49.80;;;;;;5010261;28;20125;-77
2022/06/23 11:38:58;;;;;;;6.03;2.70;;;32.50;51.10;;;;;;4993721;28;20464;-78
2022/06/23 11:41:46;;;;;;;3.60;2.15;;;32.50;49.80;;;;;;5010247;28;20046;-77
2022/06/23 11:44:27;;;;;;;3.33;2.00;;;32.50;49.70;;;;;;5010641;28;20104;-78
2022/06/23 11:47:22;;;;;;;5.75;2.10;;;32.50;52.20;;;;;;5010436;28;20041;-78
2022/06/23 11:49:47;;;;;;;5.18;2.30;;;32.50;50.10;;;;;;5010476;28;20112;-79
2022/06/23 11:52:37;;;;;;;3.50;1.90;;;32.60;51.40;;;;;;5032108;28;20041;-81
2022/06/23 11:55:21;;;;;;;3.00;2.08;;;32.60;51.10;;;;;;5033909;28;20033;-79
2022/06/23 11:58:11;;;;;;;2.67;1.60;;;32.80;50.20;;;;;;5010263;28;20401;-79
2022/06/23 12:01:25;;;;;;;6.50;2.13;;;32.80;49.40;;;;;;5009966;28;20037;-79
2022/06/23 12:04:21;;;;;;;4.95;1.92;;;32.90;46.50;;;;;;4993231;28;20133;-79
2022/06/23 12:07:08;;;;;;;5.82;1.80;;;33.00;47.90;;;;;;5010384;28;20137;-77
2022/06/23 12:10:01;;;;;;;4.63;1.77;;;33.00;45.70;;;;;;5011112;28;20042;-77
2022/06/23 12:12:28;;;;;;;2.92;1.80;;;33.20;45.60;;;;;;5010187;28;20052;-79
2022/06/23 12:14:54;;;;;;;4.97;2.15;;;33.20;46.20;;;;;;5010976;28;20056;-78
2022/06/23 12:17:47;;;;;;;4.85;1.90;;;33.30;46.80;;;;;;5017841;28;20030;-78
2022/06/23 12:20:39;;;;;;;4.50;1.80;;;33.30;46.70;;;;;;5018868;28;20124;-79
2022/06/23 12:23:43;;;;;;;3.83;1.70;;;33.40;46.90;;;;;;5024607;28;20033;-78
2022/06/23 12:26:29;;;;;;;5.07;1.92;;;33.50;46.10;;;;;;5023206;28;20420;-78
2022/06/23 12:29:17;;;;;;;2.80;2.03;;;33.70;45.30;;;;;;5023130;28;20041;-78
2022/06/23 12:32:05;;;;;;;4.28;1.70;;;34.00;45.60;;;;;;5016521;28;20570;-78
2022/06/23 12:34:56;;;;;;;2.97;1.80;;;34.00;45.70;;;;;;5018797;28;20080;-79
2022/06/23 12:37:57;;;;;;;2.43;1.80;;;33.80;44.90;;;;;;5001477;28;20078;-79
2022/06/23 12:40:27;;;;;;;5.03;1.58;;;33.60;43.10;;;;;;4994109;28;20553;-78
2022/06/23 12:43:03;;;;;;;5.03;1.80;;;33.70;44.20;;;;;;5015724;28;20108;-78
2022/06/23 12:45:36;;;;;;;5.45;1.65;;;33.80;43.00;;;;;;5011255;28;20038;-79
2022/06/23 12:48:11;;;;;;;3.15;2.00;;;33.90;43.20;;;;;;5015418;28;20084;-79
2022/06/23 12:50:58;;;;;;;2.80;1.70;;;34.00;43.00;;;;;;5028921;28;20091;-79
2022/06/23 12:53:54;;;;;;;3.97;1.70;;;34.00;42.30;;;;;;5012583;28;20041;-79
2022/06/23 12:56:53;;;;;;;4.50;2.05;;;34.00;43.50;;;;;;5024762;28;20038;-77
2022/06/23 12:59:27;;;;;;;3.10;1.60;;;34.00;42.00;;;;;;5020087;28;20485;-79
2022/06/23 13:02:06;;;;;;;3.35;1.67;;;33.90;43.60;;;;;;4999685;28;20505;-78
2022/06/23 13:04:47;;;;;;;1.83;1.73;;;33.80;43.40;;;;;;4980444;28;20572;-77
2022/06/23 13:07:40;;;;;;;4.50;1.92;;;33.90;43.20;;;;;;5010766;28;20050;-79
2022/06/23 13:10:27;;;;;;;3.55;1.77;;;34.00;42.40;;;;;;5008794;28;20061;-78
2022/06/23 13:13:13;;;;;;;6.35;1.70;;;34.00;42.30;;;;;;5013250;28;20401;-79
2022/06/23 13:15:46;;;;;;;5.53;1.85;;;34.10;43.10;;;;;;4996888;28;20556;-78
2022/06/23 13:18:35;;;;;;;2.58;2.05;;;34.10;42.30;;;;;;4996473;28;20394;-78
2022/06/23 13:21:15;;;;;;;2.38;1.63;;;34.00;42.20;;;;;;4997386;28;20108;-79
2022/06/23 13:23:54;;;;;;;4.90;1.83;;;34.00;44.20;;;;;;5014682;28;20057;-79
2022/06/23 13:26:28;;;;;;;4.45;1.98;;;34.00;42.90;;;;;;5014638;28;20042;-80
2022/06/23 13:29:16;;;;;;;3.10;1.95;;;33.90;42.70;;;;;;5015618;28;20400;-80
2022/06/23 13:31:48;;;;;;;1.80;1.70;;;33.90;42.30;;;;;;5015866;28;20038;-80
2022/06/23 13:34:27;;;;;;;5.25;1.98;;;34.00;42.50;;;;;;5000034;28;20042;-79
2022/06/23 13:37:17;;;;;;;2.63;1.98;;;34.00;42.90;;;;;;5016534;28;20042;-79
2022/06/23 13:40:11;;;;;;;2.97;2.25;;;34.00;43.40;;;;;;5015311;28;20042;-78
2022/06/23 13:42:59;;;;;;;4.32;2.22;;;34.00;43.10;;;;;;5016378;28;20077;-77
2022/06/23 13:45:35;;;;;;;2.88;2.03;;;33.90;43.20;;;;;;5015577;28;20037;-80
2022/06/23 13:48:09;;;;;;;5.30;2.30;;;33.90;43.60;;;;;;5013525;28;20048;-80
2022/06/23 13:50:47;;;;;;;3.80;2.20;;;33.90;43.50;;;;;;5013362;28;20037;-80
2022/06/23 13:53:28;;;;;;;5.35;2.05;;;34.00;43.30;;;;;;4996574;28;20504;-80
2022/06/23 13:56:02;;;;;;;4.03;2.30;;;34.10;43.30;;;;;;5013009;28;20042;-80
2022/06/23 13:58:46;;;;;;;6.35;2.33;;;34.20;43.30;;;;;;4996475;28;20497;-80
2022/06/23 14:01:30;;;;;;;4.50;2.10;;;34.10;45.30;;;;;;5012845;28;20101;-80
2022/06/23 14:04:08;;;;;;;2.58;2.22;;;34.00;44.00;;;;;;5013201;28;20060;-79